sensor_id;sensor_type;location;lat;lon;timestamp;pressure;altitude;pressure_sealevel;temperature;humidity
12666;BME280;58531;59.050;17.416;2023-02-05T00:00:53;103045.38;;;-12.23;100.00
12666;BME280;58531;59.050;17.416;2023-02-05T00:03:20;103049.19;;;-12.25;100.00
12666;BME280;58531;59.050;17.416;2023-02-05T00:05:47;103038.91;;;-12.25;100.00
12666;BME280;58531;59.050;17.416;2023-02-05T00:08:14;103040.91;;;-12.27;100.00
12666;BME280;58531;59.050;17.416;2023-02-05T00:10:41;103030.16;;;-12.24;100.00
12666;BME280;58531;59.050;17.416;2023-02-05T00:13:07;103017.63;;;-12.21;100.00
12666;BME280;58531;59.050;17.416;2023-02-05T00:15:34;103009.56;;;-12.24;100.00
12666;BME280;58531;59.050;17.416;2023-02-05T00:18:06;103005.66;;;-12.27;100.00
12666;BME280;58531;59.050;17.416;2023-02-05T00:20:33;103012.28;;;-12.31;100.00
12666;BME280;58531;59.050;17.416;2023-02-05T00:23:00;103004.19;;;-12.34;100.00
12666;BME280;58531;59.050;17.416;2023-02-05T00:25:27;103001.06;;;-12.36;100.00
12666;BME280;58531;59.050;17.416;2023-02-05T00:27:54;103004.19;;;-12.34;100.00
12666;BME280;58531;59.050;17.416;2023-02-05T00:30:21;102999.28;;;-12.36;100.00
12666;BME280;58531;59.050;17.416;2023-02-05T00:32:48;102997.50;;;-12.35;100.00
12666;BME280;58531;59.050;17.416;2023-02-05T00:35:16;103001.06;;;-12.36;100.00
12666;BME280;58531;59.050;17.416;2023-02-05T00:37:43;102991.56;;;-12.36;100.00
12666;BME280;58531;59.050;17.416;2023-02-05T00:40:10;102987.53;;;-12.32;100.00
12666;BME280;58531;59.050;17.416;2023-02-05T00:42:37;102986.28;;;-12.29;100.00
12666;BME280;58531;59.050;17.416;2023-02-05T00:45:04;102980.94;;;-12.28;100.00
12666;BME280;58531;59.050;17.416;2023-02-05T00:47:31;102986.16;;;-12.23;100.00
12666;BME280;58531;59.050;17.416;2023-02-05T00:49:58;102978.22;;;-12.21;100.00
12666;BME280;58531;59.050;17.416;2023-02-05T00:52:26;102975.31;;;-12.13;100.00
12666;BME280;58531;59.050;17.416;2023-02-05T00:54:53;102968.00;;;-12.05;100.00
12666;BME280;58531;59.050;17.416;2023-02-05T00:57:20;102958.25;;;-12.03;100.00
12666;BME280;58531;59.050;17.416;2023-02-05T00:59:49;102959.06;;;-12.02;100.00
12666;BME280;58531;59.050;17.416;2023-02-05T01:02:17;102949.88;;;-11.98;100.00
12666;BME280;58531;59.050;17.416;2023-02-05T01:04:48;102947.91;;;-11.91;100.00
12666;BME280;58531;59.050;17.416;2023-02-05T01:07:14;102948.56;;;-11.84;100.00
12666;BME280;58531;59.050;17.416;2023-02-05T01:09:43;102946.53;;;-11.82;100.00
12666;BME280;58531;59.050;17.416;2023-02-05T01:12:10;102939.63;;;-11.82;100.00
12666;BME280;58531;59.050;17.416;2023-02-05T01:14:38;102943.59;;;-11.74;100.00
12666;BME280;58531;59.050;17.416;2023-02-05T01:17:05;102936.13;;;-11.76;100.00
12666;BME280;58531;59.050;17.416;2023-02-05T01:19:32;102927.69;;;-11.71;100.00
12666;BME280;58531;59.050;17.416;2023-02-05T01:21:59;102921.63;;;-11.65;100.00
12666;BME280;58531;59.050;17.416;2023-02-05T01:24:26;102921.94;;;-11.62;100.00
12666;BME280;58531;59.050;17.416;2023-02-05T01:26:55;102916.31;;;-11.59;100.00
12666;BME280;58531;59.050;17.416;2023-02-05T01:29:23;102914.84;;;-11.55;100.00
12666;BME280;58531;59.050;17.416;2023-02-05T01:31:50;102919.28;;;-11.50;100.00
12666;BME280;58531;59.050;17.416;2023-02-05T01:34:17;102902.25;;;-11.51;100.00
12666;BME280;58531;59.050;17.416;2023-02-05T01:36:44;102901.25;;;-11.50;100.00
12666;BME280;58531;59.050;17.416;2023-02-05T01:39:11;102896.13;;;-11.46;100.00
12666;BME280;58531;59.050;17.416;2023-02-05T01:41:38;102898.34;;;-11.38;100.00
12666;BME280;58531;59.050;17.416;2023-02-05T01:44:10;102897.41;;;-11.32;100.00
12666;BME280;58531;59.050;17.416;2023-02-05T01:46:38;102901.63;;;-11.26;100.00
12666;BME280;58531;59.050;17.416;2023-02-05T01:49:07;102904.75;;;-11.24;100.00
12666;BME280;58531;59.050;17.416;2023-02-05T01:51:36;102894.22;;;-11.22;100.00
12666;BME280;58531;59.050;17.416;2023-02-05T01:54:04;102895.28;;;-11.18;100.00
12666;BME280;58531;59.050;17.416;2023-02-05T01:56:35;102901.63;;;-11.09;100.00
12666;BME280;58531;59.050;17.416;2023-02-05T01:59:08;102901.00;;;-11.00;100.00
12666;BME280;58531;59.050;17.416;2023-02-05T02:01:36;102902.69;;;-10.89;100.00
12666;BME280;58531;59.050;17.416;2023-02-05T02:04:05;102901.28;;;-10.80;100.00
12666;BME280;58531;59.050;17.416;2023-02-05T02:06:33;102896.25;;;-10.70;100.00
12666;BME280;58531;59.050;17.416;2023-02-05T02:09:02;102884.72;;;-10.62;100.00
12666;BME280;58531;59.050;17.416;2023-02-05T02:11:33;102876.34;;;-10.53;100.00
12666;BME280;58531;59.050;17.416;2023-02-05T02:14:03;102871.78;;;-10.46;100.00
12666;BME280;58531;59.050;17.416;2023-02-05T02:16:34;102866.72;;;-10.36;100.00
12666;BME280;58531;59.050;17.416;2023-02-05T02:19:09;102867.91;;;-10.22;100.00
12666;BME280;58531;59.050;17.416;2023-02-05T02:22:26;102861.03;;;-10.12;100.00
12666;BME280;58531;59.050;17.416;2023-02-05T02:25:11;102860.41;;;-9.97;100.00
12666;BME280;58531;59.050;17.416;2023-02-05T02:27:47;102846.09;;;-9.78;100.00
12666;BME280;58531;59.050;17.416;2023-02-05T02:30:19;102850.75;;;-9.49;100.00
12666;BME280;58531;59.050;17.416;2023-02-05T02:32:55;102846.50;;;-9.28;100.00
12666;BME280;58531;59.050;17.416;2023-02-05T02:35:27;102838.81;;;-9.19;100.00
12666;BME280;58531;59.050;17.416;2023-02-05T02:38:01;102842.00;;;-9.07;100.00
12666;BME280;58531;59.050;17.416;2023-02-05T02:40:35;102831.41;;;-9.00;100.00
12666;BME280;58531;59.050;17.416;2023-02-05T02:43:08;102827.59;;;-8.93;100.00
12666;BME280;58531;59.050;17.416;2023-02-05T02:45:42;102827.84;;;-8.89;100.00
12666;BME280;58531;59.050;17.416;2023-02-05T02:48:12;102814.13;;;-8.85;100.00
12666;BME280;58531;59.050;17.416;2023-02-05T02:50:42;102806.16;;;-8.78;100.00
12666;BME280;58531;59.050;17.416;2023-02-05T02:53:15;102805.41;;;-8.74;100.00
12666;BME280;58531;59.050;17.416;2023-02-05T02:55:43;102801.25;;;-8.75;100.00
12666;BME280;58531;59.050;17.416;2023-02-05T02:58:15;102812.94;;;-8.62;100.00
12666;BME280;58531;59.050;17.416;2023-02-05T03:00:44;102811.13;;;-8.62;100.00
12666;BME280;58531;59.050;17.416;2023-02-05T03:03:14;102810.34;;;-8.62;100.00
12666;BME280;58531;59.050;17.416;2023-02-05T03:05:45;102810.88;;;-8.60;100.00
12666;BME280;58531;59.050;17.416;2023-02-05T03:08:17;102815.31;;;-8.56;100.00
12666;BME280;58531;59.050;17.416;2023-02-05T03:10:50;102817.44;;;-8.43;100.00
12666;BME280;58531;59.050;17.416;2023-02-05T03:13:20;102819.50;;;-8.30;100.00
12666;BME280;58531;59.050;17.416;2023-02-05T03:15:47;102821.63;;;-8.17;100.00
12666;BME280;58531;59.050;17.416;2023-02-05T03:18:16;102819.78;;;-8.07;100.00
12666;BME280;58531;59.050;17.416;2023-02-05T03:20:47;102820.06;;;-8.03;100.00
12666;BME280;58531;59.050;17.416;2023-02-05T03:23:16;102816.69;;;-7.94;100.00
12666;BME280;58531;59.050;17.416;2023-02-05T03:25:43;102822.13;;;-7.90;100.00
12666;BME280;58531;59.050;17.416;2023-02-05T03:28:10;102826.81;;;-7.87;100.00
12666;BME280;58531;59.050;17.416;2023-02-05T03:30:46;102823.19;;;-7.86;100.00
12666;BME280;58531;59.050;17.416;2023-02-05T03:33:31;102830.97;;;-7.81;100.00
12666;BME280;58531;59.050;17.416;2023-02-05T03:36:08;102834.06;;;-7.79;100.00
12666;BME280;58531;59.050;17.416;2023-02-05T03:38:50;102820.06;;;-7.78;100.00
12666;BME280;58531;59.050;17.416;2023-02-05T03:41:33;102821.63;;;-7.77;100.00
12666;BME280;58531;59.050;17.416;2023-02-05T03:44:27;102811.25;;;-7.77;100.00
12666;BME280;58531;59.050;17.416;2023-02-05T03:47:01;102820.34;;;-7.75;100.00
12666;BME280;58531;59.050;17.416;2023-02-05T03:49:40;102815.69;;;-7.73;100.00
12666;BME280;58531;59.050;17.416;2023-02-05T03:52:18;102802.19;;;-7.70;100.00
12666;BME280;58531;59.050;17.416;2023-02-05T03:54:54;102800.38;;;-7.69;100.00
12666;BME280;58531;59.050;17.416;2023-02-05T03:57:27;102809.19;;;-7.65;100.00
12666;BME280;58531;59.050;17.416;2023-02-05T03:59:57;102805.03;;;-7.61;100.00
12666;BME280;58531;59.050;17.416;2023-02-05T04:02:26;102805.28;;;-7.58;100.00
12666;BME280;58531;59.050;17.416;2023-02-05T04:04:53;102804.00;;;-7.55;100.00
12666;BME280;58531;59.050;17.416;2023-02-05T04:07:19;102801.13;;;-7.54;100.00
12666;BME280;58531;59.050;17.416;2023-02-05T04:09:46;102792.59;;;-7.49;100.00
12666;BME280;58531;59.050;17.416;2023-02-05T04:12:13;102781.94;;;-7.48;100.00
12666;BME280;58531;59.050;17.416;2023-02-05T04:14:40;102791.56;;;-7.43;100.00
12666;BME280;58531;59.050;17.416;2023-02-05T04:17:08;102784.53;;;-7.43;100.00
12666;BME280;58531;59.050;17.416;2023-02-05T04:19:36;102785.84;;;-7.40;100.00
12666;BME280;58531;59.050;17.416;2023-02-05T04:22:03;102778.81;;;-7.40;100.00
12666;BME280;58531;59.050;17.416;2023-02-05T04:24:30;102779.06;;;-7.36;100.00
12666;BME280;58531;59.050;17.416;2023-02-05T04:26:57;102789.94;;;-7.34;100.00
12666;BME280;58531;59.050;17.416;2023-02-05T04:29:23;102788.38;;;-7.30;100.00
12666;BME280;58531;59.050;17.416;2023-02-05T04:31:50;102791.50;;;-7.28;100.00
12666;BME280;58531;59.050;17.416;2023-02-05T04:34:17;102790.22;;;-7.26;100.00
12666;BME280;58531;59.050;17.416;2023-02-05T04:36:45;102785.25;;;-7.22;100.00
12666;BME280;58531;59.050;17.416;2023-02-05T04:39:12;102772.56;;;-7.19;100.00
12666;BME280;58531;59.050;17.416;2023-02-05T04:41:39;102780.31;;;-7.14;100.00
12666;BME280;58531;59.050;17.416;2023-02-05T04:44:06;102765.00;;;-7.10;100.00
12666;BME280;58531;59.050;17.416;2023-02-05T04:46:32;102761.06;;;-7.08;100.00
12666;BME280;58531;59.050;17.416;2023-02-05T04:49:00;102769.13;;;-7.04;100.00
12666;BME280;58531;59.050;17.416;2023-02-05T04:51:26;102755.31;;;-6.90;99.12
12666;BME280;58531;59.050;17.416;2023-02-05T04:53:55;102751.91;;;-6.86;100.00
12666;BME280;58531;59.050;17.416;2023-02-05T04:56:22;102759.66;;;-6.81;99.31
12666;BME280;58531;59.050;17.416;2023-02-05T04:58:48;102752.38;;;-6.79;100.00
12666;BME280;58531;59.050;17.416;2023-02-05T05:01:17;102750.84;;;-6.80;100.00
12666;BME280;58531;59.050;17.416;2023-02-05T05:03:44;102750.81;;;-6.75;100.00
12666;BME280;58531;59.050;17.416;2023-02-05T05:06:12;102753.16;;;-6.73;100.00
12666;BME280;58531;59.050;17.416;2023-02-05T05:08:39;102738.84;;;-6.71;100.00
12666;BME280;58531;59.050;17.416;2023-02-05T05:11:09;102742.47;;;-6.67;99.02
12666;BME280;58531;59.050;17.416;2023-02-05T05:13:37;102745.84;;;-6.66;100.00
12666;BME280;58531;59.050;17.416;2023-02-05T05:16:05;102741.94;;;-6.69;100.00
12666;BME280;58531;59.050;17.416;2023-02-05T05:18:32;102748.97;;;-6.64;100.00
12666;BME280;58531;59.050;17.416;2023-02-05T05:20:59;102738.56;;;-6.64;100.00
12666;BME280;58531;59.050;17.416;2023-02-05T05:23:26;102746.31;;;-6.59;98.72
12666;BME280;58531;59.050;17.416;2023-02-05T05:25:53;102752.78;;;-6.52;97.87
12666;BME280;58531;59.050;17.416;2023-02-05T05:28:21;102736.41;;;-6.52;100.00
12666;BME280;58531;59.050;17.416;2023-02-05T05:30:48;102739.22;;;-6.44;97.59
12666;BME280;58531;59.050;17.416;2023-02-05T05:33:15;102734.75;;;-6.38;97.76
12666;BME280;58531;59.050;17.416;2023-02-05T05:35:44;102738.56;;;-6.26;93.60
12666;BME280;58531;59.050;17.416;2023-02-05T05:38:11;102736.94;;;-6.17;94.14
12666;BME280;58531;59.050;17.416;2023-02-05T05:40:38;102734.81;;;-6.10;91.42
12666;BME280;58531;59.050;17.416;2023-02-05T05:43:24;102729.03;;;-6.02;91.04
12666;BME280;58531;59.050;17.416;2023-02-05T05:46:08;102732.66;;;-5.98;91.52
12666;BME280;58531;59.050;17.416;2023-02-05T05:48:35;102737.06;;;-5.98;92.24
12666;BME280;58531;59.050;17.416;2023-02-05T05:51:02;102729.75;;;-5.96;91.41
12666;BME280;58531;59.050;17.416;2023-02-05T05:53:30;102727.91;;;-5.91;89.66
12666;BME280;58531;59.050;17.416;2023-02-05T05:55:57;102725.25;;;-5.86;88.94
12666;BME280;58531;59.050;17.416;2023-02-05T05:58:26;102726.16;;;-5.77;87.56
12666;BME280;58531;59.050;17.416;2023-02-05T06:00:53;102725.69;;;-5.79;87.71
12666;BME280;58531;59.050;17.416;2023-02-05T06:03:20;102720.50;;;-5.79;87.67
12666;BME280;58531;59.050;17.416;2023-02-05T06:05:48;102710.56;;;-5.77;87.82
12666;BME280;58531;59.050;17.416;2023-02-05T06:08:15;102705.84;;;-5.75;86.51
12666;BME280;58531;59.050;17.416;2023-02-05T06:10:42;102708.97;;;-5.73;86.91
12666;BME280;58531;59.050;17.416;2023-02-05T06:13:09;102706.06;;;-5.67;83.92
12666;BME280;58531;59.050;17.416;2023-02-05T06:15:37;102705.50;;;-5.64;85.77
12666;BME280;58531;59.050;17.416;2023-02-05T06:18:04;102710.72;;;-5.64;83.12
12666;BME280;58531;59.050;17.416;2023-02-05T06:20:30;102703.66;;;-5.63;84.67
12666;BME280;58531;59.050;17.416;2023-02-05T06:22:57;102705.22;;;-5.62;85.31
12666;BME280;58531;59.050;17.416;2023-02-05T06:25:24;102702.31;;;-5.61;85.89
12666;BME280;58531;59.050;17.416;2023-02-05T06:27:51;102692.16;;;-5.57;84.16
12666;BME280;58531;59.050;17.416;2023-02-05T06:30:18;102689.56;;;-5.57;86.01
12666;BME280;58531;59.050;17.416;2023-02-05T06:32:46;102693.00;;;-5.62;84.38
12666;BME280;58531;59.050;17.416;2023-02-05T06:35:13;102695.88;;;-5.63;87.10
12666;BME280;58531;59.050;17.416;2023-02-05T06:37:40;102697.97;;;-5.65;86.66
12666;BME280;58531;59.050;17.416;2023-02-05T06:40:08;102699.00;;;-5.66;85.16
12666;BME280;58531;59.050;17.416;2023-02-05T06:42:35;102709.88;;;-5.59;82.01
12666;BME280;58531;59.050;17.416;2023-02-05T06:45:03;102705.88;;;-5.52;81.86
12666;BME280;58531;59.050;17.416;2023-02-05T06:47:30;102704.78;;;-5.46;80.54
12666;BME280;58531;59.050;17.416;2023-02-05T06:49:58;102700.38;;;-5.45;79.75
12666;BME280;58531;59.050;17.416;2023-02-05T06:52:25;102706.00;;;-5.38;81.01
12666;BME280;58531;59.050;17.416;2023-02-05T06:54:51;102711.72;;;-5.36;80.49
12666;BME280;58531;59.050;17.416;2023-02-05T06:57:18;102701.22;;;-5.31;78.66
12666;BME280;58531;59.050;17.416;2023-02-05T06:59:45;102700.66;;;-5.28;81.43
12666;BME280;58531;59.050;17.416;2023-02-05T07:02:13;102698.56;;;-5.26;80.61
12666;BME280;58531;59.050;17.416;2023-02-05T07:04:40;102700.84;;;-5.20;77.42
12666;BME280;58531;59.050;17.416;2023-02-05T07:07:08;102705.22;;;-5.15;79.31
12666;BME280;58531;59.050;17.416;2023-02-05T07:09:35;102703.09;;;-5.13;79.80
12666;BME280;58531;59.050;17.416;2023-02-05T07:12:02;102689.22;;;-5.09;79.08
12666;BME280;58531;59.050;17.416;2023-02-05T07:14:29;102702.56;;;-5.10;79.81
12666;BME280;58531;59.050;17.416;2023-02-05T07:16:57;102706.41;;;-5.08;80.83
12666;BME280;58531;59.050;17.416;2023-02-05T07:19:23;102712.41;;;-5.07;78.82
12666;BME280;58531;59.050;17.416;2023-02-05T07:21:50;102718.13;;;-5.05;78.99
12666;BME280;58531;59.050;17.416;2023-02-05T07:24:18;102711.84;;;-5.04;78.83
12666;BME280;58531;59.050;17.416;2023-02-05T07:26:45;102709.19;;;-4.99;76.71
12666;BME280;58531;59.050;17.416;2023-02-05T07:29:12;102720.03;;;-4.92;76.95
12666;BME280;58531;59.050;17.416;2023-02-05T07:31:39;102716.38;;;-4.91;78.47
12666;BME280;58531;59.050;17.416;2023-02-05T07:34:06;102717.88;;;-4.85;79.13
12666;BME280;58531;59.050;17.416;2023-02-05T07:36:34;102718.84;;;-4.81;77.24
12666;BME280;58531;59.050;17.416;2023-02-05T07:39:01;102722.44;;;-4.77;77.75
12666;BME280;58531;59.050;17.416;2023-02-05T07:41:29;102732.28;;;-4.74;79.37
12666;BME280;58531;59.050;17.416;2023-02-05T07:43:56;102730.41;;;-4.69;76.56
12666;BME280;58531;59.050;17.416;2023-02-05T07:46:23;102725.63;;;-4.62;78.78
12666;BME280;58531;59.050;17.416;2023-02-05T07:48:50;102725.84;;;-4.59;76.45
12666;BME280;58531;59.050;17.416;2023-02-05T07:51:19;102726.53;;;-4.53;76.72
12666;BME280;58531;59.050;17.416;2023-02-05T07:53:47;102722.59;;;-4.51;75.43
12666;BME280;58531;59.050;17.416;2023-02-05T07:56:15;102721.72;;;-4.46;74.16
12666;BME280;58531;59.050;17.416;2023-02-05T07:58:43;102722.22;;;-4.44;72.93
12666;BME280;58531;59.050;17.416;2023-02-05T08:01:10;102721.41;;;-4.40;74.81
12666;BME280;58531;59.050;17.416;2023-02-05T08:03:37;102716.88;;;-4.34;73.06
12666;BME280;58531;59.050;17.416;2023-02-05T08:06:05;102724.81;;;-4.26;75.40
12666;BME280;58531;59.050;17.416;2023-02-05T08:08:32;102726.28;;;-4.20;76.21
12666;BME280;58531;59.050;17.416;2023-02-05T08:11:00;102724.66;;;-4.16;73.06
12666;BME280;58531;59.050;17.416;2023-02-05T08:13:27;102725.88;;;-4.08;75.03
12666;BME280;58531;59.050;17.416;2023-02-05T08:15:56;102727.59;;;-4.04;74.01
12666;BME280;58531;59.050;17.416;2023-02-05T08:18:23;102731.78;;;-4.03;72.50
12666;BME280;58531;59.050;17.416;2023-02-05T08:20:51;102727.44;;;-3.94;74.40
12666;BME280;58531;59.050;17.416;2023-02-05T08:23:19;102723.97;;;-3.89;75.05
12666;BME280;58531;59.050;17.416;2023-02-05T08:25:46;102718.75;;;-3.89;73.74
12666;BME280;58531;59.050;17.416;2023-02-05T08:28:13;102725.25;;;-3.87;72.54
12666;BME280;58531;59.050;17.416;2023-02-05T08:30:40;102730.56;;;-3.78;70.64
12666;BME280;58531;59.050;17.416;2023-02-05T08:33:08;102727.09;;;-3.74;72.36
12666;BME280;58531;59.050;17.416;2023-02-05T08:35:35;102725.94;;;-3.68;72.39
12666;BME280;58531;59.050;17.416;2023-02-05T08:38:02;102732.94;;;-3.63;72.59
12666;BME280;58531;59.050;17.416;2023-02-05T08:40:29;102729.44;;;-3.59;71.91
12666;BME280;58531;59.050;17.416;2023-02-05T08:42:56;102735.25;;;-3.49;72.48
12666;BME280;58531;59.050;17.416;2023-02-05T08:45:24;102729.66;;;-3.42;72.41
12666;BME280;58531;59.050;17.416;2023-02-05T08:47:51;102733.81;;;-3.41;69.54
12666;BME280;58531;59.050;17.416;2023-02-05T08:50:20;102733.16;;;-3.33;70.35
12666;BME280;58531;59.050;17.416;2023-02-05T08:52:47;102732.44;;;-3.25;69.70
12666;BME280;58531;59.050;17.416;2023-02-05T08:55:15;102730.81;;;-3.21;70.55
12666;BME280;58531;59.050;17.416;2023-02-05T08:57:43;102733.16;;;-3.20;69.10
12666;BME280;58531;59.050;17.416;2023-02-05T09:00:11;102730.63;;;-3.11;69.86
12666;BME280;58531;59.050;17.416;2023-02-05T09:02:40;102723.66;;;-3.02;68.98
12666;BME280;58531;59.050;17.416;2023-02-05T09:05:07;102731.88;;;-2.95;69.76
12666;BME280;58531;59.050;17.416;2023-02-05T09:07:35;102727.72;;;-2.96;66.33
12666;BME280;58531;59.050;17.416;2023-02-05T09:10:02;102717.25;;;-2.96;69.17
12666;BME280;58531;59.050;17.416;2023-02-05T09:12:29;102725.00;;;-2.91;65.96
12666;BME280;58531;59.050;17.416;2023-02-05T09:14:56;102725.97;;;-2.87;66.35
12666;BME280;58531;59.050;17.416;2023-02-05T09:17:23;102718.59;;;-2.85;67.12
12666;BME280;58531;59.050;17.416;2023-02-05T09:19:50;102721.88;;;-2.80;66.72
12666;BME280;58531;59.050;17.416;2023-02-05T09:22:17;102713.91;;;-2.75;66.36
12666;BME280;58531;59.050;17.416;2023-02-05T09:24:46;102718.84;;;-2.73;65.47
12666;BME280;58531;59.050;17.416;2023-02-05T09:27:13;102720.50;;;-2.77;65.70
12666;BME280;58531;59.050;17.416;2023-02-05T09:29:40;102717.19;;;-2.69;64.57
12666;BME280;58531;59.050;17.416;2023-02-05T09:32:07;102721.59;;;-2.56;66.45
12666;BME280;58531;59.050;17.416;2023-02-05T09:34:34;102713.19;;;-2.53;66.17
12666;BME280;58531;59.050;17.416;2023-02-05T09:37:01;102709.38;;;-2.47;65.48
12666;BME280;58531;59.050;17.416;2023-02-05T09:39:28;102701.53;;;-2.47;65.63
12666;BME280;58531;59.050;17.416;2023-02-05T09:42:00;102706.06;;;-2.39;66.77
12666;BME280;58531;59.050;17.416;2023-02-05T09:44:42;102702.59;;;-2.27;67.01
12666;BME280;58531;59.050;17.416;2023-02-05T09:47:17;102694.41;;;-2.33;65.93
12666;BME280;58531;59.050;17.416;2023-02-05T09:49:52;102694.75;;;-2.27;69.93
12666;BME280;58531;59.050;17.416;2023-02-05T09:52:26;102686.41;;;-2.29;70.30
12666;BME280;58531;59.050;17.416;2023-02-05T09:54:59;102686.91;;;-2.48;73.97
12666;BME280;58531;59.050;17.416;2023-02-05T09:57:32;102685.41;;;-2.41;76.54
12666;BME280;58531;59.050;17.416;2023-02-05T09:59:59;102674.44;;;-2.30;79.28
12666;BME280;58531;59.050;17.416;2023-02-05T10:02:30;102668.84;;;-2.36;79.73
12666;BME280;58531;59.050;17.416;2023-02-05T10:05:00;102671.63;;;-2.33;80.92
12666;BME280;58531;59.050;17.416;2023-02-05T10:07:36;102664.59;;;-2.24;80.93
12666;BME280;58531;59.050;17.416;2023-02-05T10:10:17;102650.50;;;-2.15;80.89
12666;BME280;58531;59.050;17.416;2023-02-05T10:13:21;102648.22;;;-2.08;81.11
12666;BME280;58531;59.050;17.416;2023-02-05T10:16:17;102658.78;;;-1.91;82.39
12666;BME280;58531;59.050;17.416;2023-02-05T10:18:56;102646.81;;;-1.75;81.06
12666;BME280;58531;59.050;17.416;2023-02-05T10:21:38;102650.72;;;-1.64;82.04
12666;BME280;58531;59.050;17.416;2023-02-05T10:24:39;102651.06;;;-1.48;80.97
12666;BME280;58531;59.050;17.416;2023-02-05T10:27:14;102656.38;;;-1.23;80.93
12666;BME280;58531;59.050;17.416;2023-02-05T10:29:52;102645.44;;;-1.25;76.87
12666;BME280;58531;59.050;17.416;2023-02-05T10:32:24;102645.88;;;-1.40;78.88
12666;BME280;58531;59.050;17.416;2023-02-05T10:34:57;102638.16;;;-1.45;78.86
12666;BME280;58531;59.050;17.416;2023-02-05T10:37:34;102640.63;;;-1.40;78.57
12666;BME280;58531;59.050;17.416;2023-02-05T10:40:10;102639.66;;;-1.61;80.09
12666;BME280;58531;59.050;17.416;2023-02-05T10:42:41;102646.28;;;-1.63;80.95
12666;BME280;58531;59.050;17.416;2023-02-05T10:45:15;102630.34;;;-1.84;81.86
12666;BME280;58531;59.050;17.416;2023-02-05T10:48:00;102639.31;;;-1.68;81.65
12666;BME280;58531;59.050;17.416;2023-02-05T10:50:35;102631.44;;;-1.68;82.56
12666;BME280;58531;59.050;17.416;2023-02-05T10:53:09;102629.16;;;-1.61;82.11
12666;BME280;58531;59.050;17.416;2023-02-05T10:55:36;102627.28;;;-1.69;82.24
12666;BME280;58531;59.050;17.416;2023-02-05T10:58:23;102637.75;;;-1.69;83.56
12666;BME280;58531;59.050;17.416;2023-02-05T11:00:54;102635.19;;;-1.60;83.81
12666;BME280;58531;59.050;17.416;2023-02-05T11:03:21;102626.56;;;-1.52;84.25
12666;BME280;58531;59.050;17.416;2023-02-05T11:05:49;102620.88;;;-1.54;84.29
12666;BME280;58531;59.050;17.416;2023-02-05T11:08:34;102622.09;;;-1.52;84.98
12666;BME280;58531;59.050;17.416;2023-02-05T11:11:02;102625.81;;;-1.53;86.33
12666;BME280;58531;59.050;17.416;2023-02-05T11:13:29;102620.44;;;-1.48;85.77
12666;BME280;58531;59.050;17.416;2023-02-05T11:15:59;102616.25;;;-1.49;86.09
12666;BME280;58531;59.050;17.416;2023-02-05T11:18:29;102617.81;;;-1.48;86.81
12666;BME280;58531;59.050;17.416;2023-02-05T11:21:00;102625.06;;;-1.45;87.10
12666;BME280;58531;59.050;17.416;2023-02-05T11:23:29;102615.47;;;-1.58;87.35
12666;BME280;58531;59.050;17.416;2023-02-05T11:25:59;102614.31;;;-1.74;88.65
12666;BME280;58531;59.050;17.416;2023-02-05T11:28:27;102618.34;;;-1.76;89.96
12666;BME280;58531;59.050;17.416;2023-02-05T11:30:55;102620.34;;;-1.73;90.22
12666;BME280;58531;59.050;17.416;2023-02-05T11:33:29;102620.34;;;-1.73;91.15
12666;BME280;58531;59.050;17.416;2023-02-05T11:35:59;102614.19;;;-1.77;91.72
12666;BME280;58531;59.050;17.416;2023-02-05T11:38:41;102613.84;;;-1.84;92.16
12666;BME280;58531;59.050;17.416;2023-02-05T11:41:10;102622.34;;;-1.79;92.91
12666;BME280;58531;59.050;17.416;2023-02-05T11:43:43;102625.56;;;-1.82;93.72
12666;BME280;58531;59.050;17.416;2023-02-05T11:46:15;102638.22;;;-1.75;94.21
12666;BME280;58531;59.050;17.416;2023-02-05T11:48:50;102639.75;;;-1.74;94.39
12666;BME280;58531;59.050;17.416;2023-02-05T11:51:34;102632.81;;;-1.79;94.72
12666;BME280;58531;59.050;17.416;2023-02-05T11:54:13;102639.16;;;-1.71;95.46
12666;BME280;58531;59.050;17.416;2023-02-05T11:56:42;102631.50;;;-1.59;96.34
12666;BME280;58531;59.050;17.416;2023-02-05T11:59:24;102641.06;;;-1.55;96.84
12666;BME280;58531;59.050;17.416;2023-02-05T12:01:51;102630.44;;;-1.50;97.77
12666;BME280;58531;59.050;17.416;2023-02-05T12:04:20;102628.63;;;-1.41;96.97
12666;BME280;58531;59.050;17.416;2023-02-05T12:06:49;102621.84;;;-1.33;96.92
12666;BME280;58531;59.050;17.416;2023-02-05T12:09:20;102622.31;;;-1.23;96.22
12666;BME280;58531;59.050;17.416;2023-02-05T12:11:57;102626.47;;;-1.22;97.23
12666;BME280;58531;59.050;17.416;2023-02-05T12:14:48;102616.31;;;-1.15;97.19
12666;BME280;58531;59.050;17.416;2023-02-05T12:17:25;102614.94;;;-1.13;97.17
12666;BME280;58531;59.050;17.416;2023-02-05T12:19:58;102612.47;;;-1.09;97.33
12666;BME280;58531;59.050;17.416;2023-02-05T12:22:49;102609.84;;;-1.01;97.15
12666;BME280;58531;59.050;17.416;2023-02-05T12:25:23;102613.72;;;-1.07;98.04
12666;BME280;58531;59.050;17.416;2023-02-05T12:28:08;102606.31;;;-1.05;99.09
12666;BME280;58531;59.050;17.416;2023-02-05T12:30:50;102606.28;;;-1.13;100.00
12666;BME280;58531;59.050;17.416;2023-02-05T12:33:33;102606.13;;;-1.08;100.00
12666;BME280;58531;59.050;17.416;2023-02-05T12:36:15;102601.06;;;-1.05;100.00
12666;BME280;58531;59.050;17.416;2023-02-05T12:38:56;102609.84;;;-0.92;100.00
12666;BME280;58531;59.050;17.416;2023-02-05T12:41:32;102616.78;;;-0.96;100.00
12666;BME280;58531;59.050;17.416;2023-02-05T12:44:10;102619.41;;;-0.96;100.00
12666;BME280;58531;59.050;17.416;2023-02-05T12:46:55;102619.56;;;-1.01;100.00
12666;BME280;58531;59.050;17.416;2023-02-05T12:49:39;102621.41;;;-1.02;100.00